createdAt,value
2022-11-29T00:04:21.420Z,7.45
2022-11-29T00:09:23.195Z,6.10
2022-11-29T00:14:27.008Z,6.00
2022-11-29T00:19:29.216Z,5.60
2022-11-29T00:24:32.392Z,5.93
2022-11-29T00:29:34.148Z,7.53
2022-11-29T00:34:36.627Z,6.15
2022-11-29T00:39:38.485Z,5.55
2022-11-29T00:44:40.349Z,5.57
2022-11-29T00:49:42.242Z,6.35
2022-11-29T00:54:44.257Z,5.97
2022-11-29T00:59:46.137Z,4.50
2022-11-29T01:04:47.890Z,5.05
2022-11-29T01:09:49.694Z,5.45
2022-11-29T01:14:51.480Z,4.78
2022-11-29T01:19:53.456Z,6.35
2022-11-29T01:24:55.203Z,6.50
2022-11-29T01:29:57.147Z,6.82
2022-11-29T01:34:58.945Z,4.57
2022-11-29T01:40:00.712Z,5.55
2022-11-29T01:45:24.707Z,5.38
2022-11-29T01:50:26.498Z,4.70
2022-11-29T01:55:29.034Z,4.95
2022-11-29T02:00:31.055Z,4.20
2022-11-29T02:05:33.196Z,4.68
2022-11-29T02:10:53.101Z,6.22
2022-11-29T02:16:13.484Z,5.10
2022-11-29T02:21:50.094Z,5.28
2022-11-29T02:27:02.838Z,3.83
2022-11-29T02:32:23.040Z,4.95
2022-11-29T02:37:42.803Z,5.30
2022-11-29T02:43:15.381Z,5.75
2022-11-29T02:48:52.467Z,4.60
2022-11-29T02:54:04.708Z,4.90
2022-11-29T02:59:21.623Z,4.43
2022-11-29T03:04:50.111Z,4.15
2022-11-29T03:10:09.660Z,5.25
2022-11-29T03:15:19.714Z,4.35
2022-11-29T03:20:58.985Z,5.28
2022-11-29T03:26:32.293Z,4.80
2022-11-29T03:32:09.359Z,5.80
2022-11-29T03:37:57.864Z,6.50
2022-11-29T03:43:09.381Z,4.68
2022-11-29T03:48:17.141Z,5.55
2022-11-29T03:53:56.046Z,6.32
2022-11-29T03:59:10.048Z,6.78
2022-11-29T04:04:45.988Z,8.35
2022-11-29T04:10:17.315Z,4.97
2022-11-29T04:15:19.230Z,6.65
2022-11-29T04:20:48.706Z,6.30
2022-11-29T04:26:11.708Z,6.47
2022-11-29T04:31:47.312Z,6.07
2022-11-29T04:37:10.251Z,8.75
2022-11-29T04:42:53.769Z,7.03
2022-11-29T04:47:59.126Z,8.55
2022-11-29T04:53:28.505Z,7.25
2022-11-29T04:59:07.155Z,7.60
2022-11-29T05:04:17.953Z,7.03
2022-11-29T05:09:35.120Z,7.25
2022-11-29T05:14:48.759Z,8.70
2022-11-29T05:20:03.743Z,9.02
2022-11-29T05:25:34.323Z,5.75
2022-11-29T05:31:13.254Z,5.28
2022-11-29T05:36:22.108Z,4.75
2022-11-29T05:41:45.560Z,6.32
2022-11-29T05:46:54.692Z,6.35
2022-11-29T05:52:25.415Z,7.55
2022-11-29T05:57:55.339Z,7.60
2022-11-29T06:03:06.314Z,8.00
2022-11-29T06:08:18.721Z,7.18
2022-11-29T06:14:02.031Z,8.30
2022-11-29T06:19:21.456Z,7.68
2022-11-29T06:24:56.720Z,8.07
2022-11-29T06:30:26.265Z,8.73
2022-11-29T06:36:05.965Z,7.90
2022-11-29T06:41:17.112Z,9.18
2022-11-29T06:46:39.910Z,11.90
2022-11-29T06:51:51.959Z,8.02
2022-11-29T06:57:12.723Z,7.05
2022-11-29T07:02:30.679Z,8.13
2022-11-29T07:12:36.100Z,10.57
2022-11-29T07:18:04.947Z,9.55
2022-11-29T07:23:27.880Z,13.30
2022-11-29T07:28:50.664Z,11.35
2022-11-29T07:34:04.878Z,8.27
2022-11-29T07:39:12.712Z,8.68
2022-11-29T07:44:55.008Z,10.82
2022-11-29T07:49:56.779Z,12.82
2022-11-29T07:54:58.507Z,16.30
2022-11-29T08:00:00.448Z,16.15
2022-11-29T08:05:03.888Z,22.77
2022-11-29T08:10:12.475Z,64.85
2022-11-29T08:15:14.547Z,27.50
2022-11-29T08:20:17.035Z,25.65
2022-11-29T08:25:18.843Z,15.70
2022-11-29T08:30:23.553Z,23.42
2022-11-29T08:35:25.373Z,16.27
2022-11-29T08:40:27.163Z,18.88
2022-11-29T08:45:29.015Z,18.27
2022-11-29T08:50:30.773Z,18.70
2022-11-29T08:55:40.075Z,17.15
2022-11-29T09:00:44.239Z,19.33
2022-11-29T09:05:46.144Z,18.65
2022-11-29T09:10:48.328Z,26.00
2022-11-29T09:15:50.174Z,22.80
2022-11-29T09:20:51.935Z,57.20
2022-11-29T09:25:54.488Z,23.17
2022-11-29T09:30:56.294Z,24.92
2022-11-29T09:35:58.832Z,28.45
2022-11-29T09:41:14.572Z,24.77
2022-11-29T09:46:22.409Z,39.60
2022-11-29T09:51:59.203Z,29.38
2022-11-29T09:57:10.345Z,24.95
2022-11-29T10:02:21.710Z,23.48
2022-11-29T10:07:30.133Z,29.88
2022-11-29T10:12:39.541Z,23.20
2022-11-29T10:18:00.102Z,23.63
2022-11-29T10:23:20.377Z,27.55
2022-11-29T10:28:26.346Z,20.90
2022-11-29T10:33:36.525Z,20.70
2022-11-29T10:38:38.309Z,16.75
2022-11-29T10:43:40.248Z,18.83
2022-11-29T10:48:42.298Z,17.98
2022-11-29T10:53:45.259Z,21.40
2022-11-29T10:59:03.418Z,19.25
2022-11-29T11:04:08.471Z,17.27
2022-11-29T11:09:32.383Z,19.30
2022-11-29T11:14:38.738Z,18.70
2022-11-29T11:19:40.603Z,18.58
2022-11-29T11:24:44.928Z,17.65
2022-11-29T11:29:46.960Z,20.15
2022-11-29T11:34:54.135Z,20.35
2022-11-29T11:40:01.012Z,22.08
2022-11-29T11:45:10.746Z,24.83
2022-11-29T11:50:24.987Z,21.63
2022-11-29T11:55:39.684Z,18.80
2022-11-29T12:01:04.108Z,21.42
2022-11-29T12:06:24.841Z,22.00
2022-11-29T12:11:30.998Z,21.13
2022-11-29T12:16:37.237Z,20.77
2022-11-29T12:21:43.671Z,24.13
2022-11-29T12:27:00.921Z,24.02
2022-11-29T12:32:20.883Z,23.03
2022-11-29T12:37:35.976Z,22.92
2022-11-29T12:43:19.824Z,20.85
2022-11-29T12:48:48.859Z,23.23
2022-11-29T12:54:10.332Z,22.17
2022-11-29T12:59:28.498Z,24.10
2022-11-29T13:04:56.481Z,24.05
2022-11-29T13:10:22.849Z,25.42
2022-11-29T13:15:36.232Z,26.65
2022-11-29T13:20:44.036Z,27.90
2022-11-29T13:30:54.926Z,22.88
2022-11-29T13:36:20.740Z,23.65
2022-11-29T13:41:43.242Z,27.92
2022-11-29T13:47:03.490Z,29.80
2022-11-29T13:52:06.814Z,25.90
2022-11-29T13:57:09.984Z,25.48
2022-11-29T14:02:28.593Z,25.90
2022-11-29T14:07:30.586Z,22.52
2022-11-29T14:12:48.868Z,26.60
2022-11-29T14:17:57.842Z,24.88
2022-11-29T14:23:15.396Z,25.77
2022-11-29T14:28:17.115Z,25.70
2022-11-29T14:33:38.487Z,25.33
2022-11-29T14:38:49.375Z,27.95
2022-11-29T14:44:03.655Z,29.60
2022-11-29T14:49:05.707Z,29.85
2022-11-29T14:54:19.565Z,28.27
2022-11-29T14:59:48.434Z,29.60
2022-11-29T15:04:53.011Z,25.58
2022-11-29T15:09:59.488Z,26.83
2022-11-29T15:15:13.164Z,26.42
2022-11-29T15:20:25.043Z,24.42
2022-11-29T15:25:31.864Z,20.65
2022-11-29T15:30:38.421Z,29.37
2022-11-29T15:35:52.026Z,26.27
2022-11-29T15:40:55.247Z,20.60
2022-11-29T15:45:58.508Z,25.27
2022-11-29T15:51:09.096Z,27.67
2022-11-29T15:56:28.477Z,25.60
2022-11-29T16:01:30.580Z,26.95
2022-11-29T16:06:42.558Z,27.38
2022-11-29T16:11:45.270Z,26.50
2022-11-29T16:16:50.121Z,23.48
2022-11-29T16:22:11.420Z,21.85
2022-11-29T16:27:14.202Z,22.40
2022-11-29T16:32:33.627Z,23.55
2022-11-29T16:37:46.306Z,21.45
2022-11-29T16:43:03.453Z,21.90
2022-11-29T16:48:28.874Z,28.57
2022-11-29T16:53:40.480Z,24.67
2022-11-29T16:59:25.236Z,35.90
2022-11-29T17:04:09.216Z,44.53
2022-11-29T17:09:23.183Z,49.90
2022-11-29T17:14:25.131Z,57.25
2022-11-29T17:19:28.988Z,52.45
2022-11-29T17:24:30.889Z,44.83
2022-11-29T17:29:33.051Z,53.63
2022-11-29T17:34:35.205Z,51.95
2022-11-29T17:39:37.027Z,50.92
2022-11-29T17:44:38.893Z,43.75
2022-11-29T17:49:40.735Z,46.95
2022-11-29T17:54:42.529Z,45.08
2022-11-29T17:59:44.397Z,44.83
2022-11-29T18:04:46.316Z,54.47
2022-11-29T18:09:48.961Z,41.50
2022-11-29T18:14:52.057Z,49.35
2022-11-29T18:19:53.932Z,51.97
2022-11-29T18:25:15.835Z,47.83
2022-11-29T18:30:17.541Z,46.40
2022-11-29T18:35:19.407Z,48.35
2022-11-29T18:40:21.301Z,46.38
2022-11-29T18:45:23.147Z,47.30
2022-11-29T18:50:25.447Z,43.05
2022-11-29T18:55:28.100Z,42.17
2022-11-29T19:00:30.764Z,51.20
2022-11-29T19:05:33.058Z,47.85
2022-11-29T19:10:38.553Z,45.10
2022-11-29T19:15:40.900Z,46.83
2022-11-29T19:20:43.348Z,49.05
2022-11-29T19:25:45.849Z,39.90
2022-11-29T19:30:55.290Z,47.05
2022-11-29T19:36:03.392Z,44.53
2022-11-29T19:41:11.364Z,61.33
2022-11-29T19:46:17.228Z,50.97
2022-11-29T19:51:20.590Z,40.53
2022-11-29T19:56:24.360Z,34.67
2022-11-29T20:01:37.859Z,41.17
2022-11-29T20:06:44.596Z,39.20
2022-11-29T20:11:47.139Z,32.03
2022-11-29T20:16:51.913Z,33.38
2022-11-29T20:21:54.470Z,30.65
2022-11-29T20:26:56.877Z,30.30
2022-11-29T20:31:59.540Z,38.40
2022-11-29T20:37:15.380Z,40.75
2022-11-29T20:42:31.810Z,44.28
2022-11-29T20:47:51.403Z,45.45
2022-11-29T20:53:16.794Z,42.13
2022-11-29T20:58:20.745Z,43.67
2022-11-29T21:03:24.123Z,46.40
2022-11-29T21:08:26.869Z,48.38
2022-11-29T21:13:29.033Z,56.30
2022-11-29T21:18:31.944Z,55.75
2022-11-29T21:23:52.124Z,53.38
2022-11-29T21:29:15.006Z,56.00
2022-11-29T21:34:17.162Z,59.97
2022-11-29T21:39:18.907Z,60.17
2022-11-29T21:44:23.016Z,59.15
2022-11-29T21:49:24.951Z,58.88
2022-11-29T21:54:28.203Z,53.13
2022-11-29T21:59:29.927Z,55.80
2022-11-29T22:04:31.660Z,59.67
2022-11-29T22:09:33.455Z,69.22
2022-11-29T22:14:35.173Z,70.95
2022-11-29T22:19:36.900Z,56.85
2022-11-29T22:24:38.736Z,65.80
2022-11-29T22:29:40.463Z,57.38
2022-11-29T22:34:42.210Z,59.78
2022-11-29T22:39:43.957Z,56.33
2022-11-29T22:44:45.858Z,52.83
2022-11-29T22:49:49.357Z,51.13
2022-11-29T22:54:51.091Z,48.10
2022-11-29T22:59:52.855Z,52.50
2022-11-29T23:04:54.583Z,68.82
2022-11-29T23:09:56.412Z,64.90
2022-11-29T23:14:58.420Z,62.22
2022-11-29T23:20:00.364Z,55.28
2022-11-29T23:25:02.092Z,56.17
2022-11-29T23:30:04.336Z,53.72
2022-11-29T23:35:06.295Z,57.22
2022-11-29T23:40:08.784Z,50.97
2022-11-29T23:45:10.748Z,57.53
2022-11-29T23:50:12.793Z,62.10
2022-11-29T23:55:14.799Z,59.95
